sensor_id;sensor_type;location;lat;lon;timestamp;pressure;altitude;pressure_sealevel;temperature;humidity
34658;BME280;20865;43.312;27.152;2023-06-04T00:01:29;100647.21;;;26.13;45.92
34658;BME280;20865;43.312;27.152;2023-06-04T00:03:57;100646.98;;;26.10;46.48
34658;BME280;20865;43.312;27.152;2023-06-04T00:06:24;100656.12;;;26.05;46.95
34658;BME280;20865;43.312;27.152;2023-06-04T00:08:53;100660.34;;;26.04;47.32
34658;BME280;20865;43.312;27.152;2023-06-04T00:11:21;100668.34;;;26.01;47.63
34658;BME280;20865;43.312;27.152;2023-06-04T00:13:49;100673.08;;;25.99;47.61
34658;BME280;20865;43.312;27.152;2023-06-04T00:16:16;100670.94;;;26.03;47.91
34658;BME280;20865;43.312;27.152;2023-06-04T00:18:44;100671.56;;;26.01;47.73
34658;BME280;20865;43.312;27.152;2023-06-04T00:21:12;100672.93;;;26.01;47.86
34658;BME280;20865;43.312;27.152;2023-06-04T00:23:39;100675.81;;;25.99;46.45
34658;BME280;20865;43.312;27.152;2023-06-04T00:26:07;100671.23;;;25.94;46.89
34658;BME280;20865;43.312;27.152;2023-06-04T00:28:35;100681.20;;;25.95;47.80
34658;BME280;20865;43.312;27.152;2023-06-04T00:31:06;100677.61;;;25.95;48.13
34658;BME280;20865;43.312;27.152;2023-06-04T00:33:34;100682.42;;;25.81;47.50
34658;BME280;20865;43.312;27.152;2023-06-04T00:36:02;100687.48;;;25.86;47.14
34658;BME280;20865;43.312;27.152;2023-06-04T00:38:30;100686.77;;;25.84;46.99
34658;BME280;20865;43.312;27.152;2023-06-04T00:40:57;100685.03;;;25.77;47.69
34658;BME280;20865;43.312;27.152;2023-06-04T00:43:25;100689.89;;;25.79;47.69
34658;BME280;20865;43.312;27.152;2023-06-04T00:45:54;100690.86;;;25.78;47.63
34658;BME280;20865;43.312;27.152;2023-06-04T00:48:21;100698.56;;;25.79;47.11
34658;BME280;20865;43.312;27.152;2023-06-04T00:50:49;100688.28;;;25.77;47.55
34658;BME280;20865;43.312;27.152;2023-06-04T00:53:18;100691.37;;;25.78;48.18
34658;BME280;20865;43.312;27.152;2023-06-04T00:55:45;100691.90;;;25.72;47.34
34658;BME280;20865;43.312;27.152;2023-06-04T00:58:13;100696.53;;;25.65;45.76
34658;BME280;20865;43.312;27.152;2023-06-04T01:00:47;100704.19;;;25.56;45.55
34658;BME280;20865;43.312;27.152;2023-06-04T01:03:18;100699.41;;;25.64;46.70
34658;BME280;20865;43.312;27.152;2023-06-04T01:05:51;100704.79;;;25.60;46.41
34658;BME280;20865;43.312;27.152;2023-06-04T01:08:15;100708.24;;;25.62;46.84
34658;BME280;20865;43.312;27.152;2023-06-04T01:10:53;100706.92;;;25.56;47.34
34658;BME280;20865;43.312;27.152;2023-06-04T01:13:24;100705.41;;;25.58;47.76
34658;BME280;20865;43.312;27.152;2023-06-04T01:15:51;100699.70;;;25.55;48.04
34658;BME280;20865;43.312;27.152;2023-06-04T01:18:23;100704.56;;;25.52;48.02
34658;BME280;20865;43.312;27.152;2023-06-04T01:20:56;100701.87;;;25.46;47.86
34658;BME280;20865;43.312;27.152;2023-06-04T01:23:32;100698.14;;;25.47;47.58
34658;BME280;20865;43.312;27.152;2023-06-04T01:26:04;100705.59;;;25.45;47.59
34658;BME280;20865;43.312;27.152;2023-06-04T01:28:34;100707.61;;;25.43;47.59
34658;BME280;20865;43.312;27.152;2023-06-04T01:31:03;100712.22;;;25.42;47.23
34658;BME280;20865;43.312;27.152;2023-06-04T01:33:33;100704.98;;;25.41;47.31
34658;BME280;20865;43.312;27.152;2023-06-04T01:36:01;100709.14;;;25.36;46.54
34658;BME280;20865;43.312;27.152;2023-06-04T01:38:28;100713.09;;;25.37;46.45
34658;BME280;20865;43.312;27.152;2023-06-04T01:40:57;100714.72;;;25.34;46.88
34658;BME280;20865;43.312;27.152;2023-06-04T01:43:26;100723.83;;;25.29;46.48
34658;BME280;20865;43.312;27.152;2023-06-04T01:45:53;100716.24;;;25.27;45.81
34658;BME280;20865;43.312;27.152;2023-06-04T01:48:23;100716.48;;;25.30;46.40
34658;BME280;20865;43.312;27.152;2023-06-04T01:50:50;100714.38;;;25.28;45.46
34658;BME280;20865;43.312;27.152;2023-06-04T01:53:18;100713.16;;;25.21;44.27
34658;BME280;20865;43.312;27.152;2023-06-04T01:55:46;100717.66;;;25.22;43.60
34658;BME280;20865;43.312;27.152;2023-06-04T01:58:16;100711.44;;;25.19;44.15
34658;BME280;20865;43.312;27.152;2023-06-04T02:00:45;100718.02;;;25.17;43.75
34658;BME280;20865;43.312;27.152;2023-06-04T02:03:15;100715.55;;;25.14;43.77
34658;BME280;20865;43.312;27.152;2023-06-04T02:05:43;100722.13;;;25.17;45.09
34658;BME280;20865;43.312;27.152;2023-06-04T02:08:14;100716.05;;;25.13;45.24
34658;BME280;20865;43.312;27.152;2023-06-04T02:10:42;100729.00;;;25.11;45.07
34658;BME280;20865;43.312;27.152;2023-06-04T02:13:10;100725.76;;;25.12;44.60
34658;BME280;20865;43.312;27.152;2023-06-04T02:15:38;100726.13;;;25.07;44.43
34658;BME280;20865;43.312;27.152;2023-06-04T02:18:21;100725.37;;;25.00;44.56
34658;BME280;20865;43.312;27.152;2023-06-04T02:20:50;100728.11;;;25.00;44.09
34658;BME280;20865;43.312;27.152;2023-06-04T02:23:21;100731.59;;;24.96;44.54
34658;BME280;20865;43.312;27.152;2023-06-04T02:25:48;100739.54;;;24.99;44.87
34658;BME280;20865;43.312;27.152;2023-06-04T02:28:16;100734.22;;;24.98;45.33
34658;BME280;20865;43.312;27.152;2023-06-04T02:30:45;100739.04;;;25.00;45.97
34658;BME280;20865;43.312;27.152;2023-06-04T02:33:13;100736.31;;;25.00;46.53
34658;BME280;20865;43.312;27.152;2023-06-04T02:35:43;100740.91;;;24.99;45.94
34658;BME280;20865;43.312;27.152;2023-06-04T02:38:10;100743.89;;;25.02;45.91
34658;BME280;20865;43.312;27.152;2023-06-04T02:40:39;100748.75;;;25.04;46.64
34658;BME280;20865;43.312;27.152;2023-06-04T02:43:06;100748.50;;;25.01;46.86
34658;BME280;20865;43.312;27.152;2023-06-04T02:45:35;100752.23;;;25.00;47.09
34658;BME280;20865;43.312;27.152;2023-06-04T02:48:03;100754.97;;;25.00;47.15
34658;BME280;20865;43.312;27.152;2023-06-04T02:50:31;100766.77;;;25.01;47.33
34658;BME280;20865;43.312;27.152;2023-06-04T02:53:00;100760.14;;;25.03;47.41
34658;BME280;20865;43.312;27.152;2023-06-04T02:55:27;100758.92;;;25.02;47.27
34658;BME280;20865;43.312;27.152;2023-06-04T02:57:58;100759.53;;;25.00;47.90
34658;BME280;20865;43.312;27.152;2023-06-04T03:00:25;100761.41;;;24.99;47.65
34658;BME280;20865;43.312;27.152;2023-06-04T03:02:54;100764.39;;;24.96;47.79
34658;BME280;20865;43.312;27.152;2023-06-04T03:05:24;100768.13;;;25.01;47.73
34658;BME280;20865;43.312;27.152;2023-06-04T03:07:53;100768.98;;;25.01;47.37
34658;BME280;20865;43.312;27.152;2023-06-04T03:10:24;100770.25;;;24.97;47.32
34658;BME280;20865;43.312;27.152;2023-06-04T03:12:52;100765.64;;;24.98;47.41
34658;BME280;20865;43.312;27.152;2023-06-04T03:15:22;100762.91;;;24.98;47.60
34658;BME280;20865;43.312;27.152;2023-06-04T03:17:49;100769.60;;;24.99;47.72
34658;BME280;20865;43.312;27.152;2023-06-04T03:20:18;100771.47;;;24.99;47.08
34658;BME280;20865;43.312;27.152;2023-06-04T03:22:47;100771.11;;;24.98;47.01
34658;BME280;20865;43.312;27.152;2023-06-04T03:25:19;100771.58;;;25.03;47.08
34658;BME280;20865;43.312;27.152;2023-06-04T03:27:46;100776.94;;;25.04;47.51
34658;BME280;20865;43.312;27.152;2023-06-04T03:30:14;100772.95;;;25.03;46.52
34658;BME280;20865;43.312;27.152;2023-06-04T03:32:41;100772.70;;;25.06;47.14
34658;BME280;20865;43.312;27.152;2023-06-04T03:35:10;100771.58;;;25.08;47.39
34658;BME280;20865;43.312;27.152;2023-06-04T03:37:37;100775.96;;;25.11;46.56
34658;BME280;20865;43.312;27.152;2023-06-04T03:40:07;100769.56;;;25.10;46.69
34658;BME280;20865;43.312;27.152;2023-06-04T03:42:35;100781.64;;;25.13;46.73
34658;BME280;20865;43.312;27.152;2023-06-04T03:45:03;100768.84;;;25.08;46.31
34658;BME280;20865;43.312;27.152;2023-06-04T03:47:31;100772.58;;;25.13;46.48
34658;BME280;20865;43.312;27.152;2023-06-04T03:49:59;100771.47;;;25.15;46.42
34658;BME280;20865;43.312;27.152;2023-06-04T03:52:27;100770.71;;;25.13;45.85
34658;BME280;20865;43.312;27.152;2023-06-04T03:54:55;100770.21;;;25.14;45.28
34658;BME280;20865;43.312;27.152;2023-06-04T03:57:23;100784.02;;;25.12;45.32
34658;BME280;20865;43.312;27.152;2023-06-04T03:59:50;100777.30;;;25.16;45.07
34658;BME280;20865;43.312;27.152;2023-06-04T04:02:18;100786.75;;;25.12;45.80
34658;BME280;20865;43.312;27.152;2023-06-04T04:04:46;100786.75;;;25.18;45.19
34658;BME280;20865;43.312;27.152;2023-06-04T04:07:13;100774.95;;;25.17;45.30
34658;BME280;20865;43.312;27.152;2023-06-04T04:09:42;100775.56;;;25.15;45.29
34658;BME280;20865;43.312;27.152;2023-06-04T04:12:09;100776.83;;;25.11;45.00
34658;BME280;20865;43.312;27.152;2023-06-04T04:14:37;100782.37;;;25.10;44.49
34658;BME280;20865;43.312;27.152;2023-06-04T04:17:04;100787.98;;;25.03;44.61
34658;BME280;20865;43.312;27.152;2023-06-04T04:19:33;100785.39;;;25.12;44.68
34658;BME280;20865;43.312;27.152;2023-06-04T04:22:00;100789.98;;;24.95;44.41
34658;BME280;20865;43.312;27.152;2023-06-04T04:24:28;100798.27;;;25.10;44.74
34658;BME280;20865;43.312;27.152;2023-06-04T04:26:56;100803.52;;;25.13;44.78
34658;BME280;20865;43.312;27.152;2023-06-04T04:29:24;100802.14;;;25.13;44.69
34658;BME280;20865;43.312;27.152;2023-06-04T04:31:54;100810.09;;;25.16;44.78
34658;BME280;20865;43.312;27.152;2023-06-04T04:34:27;100811.86;;;25.17;44.95
34658;BME280;20865;43.312;27.152;2023-06-04T04:36:55;100821.53;;;25.22;45.22
34658;BME280;20865;43.312;27.152;2023-06-04T04:39:23;100821.28;;;25.25;44.89
34658;BME280;20865;43.312;27.152;2023-06-04T04:41:52;100822.75;;;25.29;44.62
34658;BME280;20865;43.312;27.152;2023-06-04T04:44:19;100830.06;;;25.34;45.72
34658;BME280;20865;43.312;27.152;2023-06-04T04:46:48;100831.17;;;25.37;46.14
34658;BME280;20865;43.312;27.152;2023-06-04T04:49:16;100824.44;;;25.41;46.64
34658;BME280;20865;43.312;27.152;2023-06-04T04:51:44;100832.75;;;25.45;46.69
34658;BME280;20865;43.312;27.152;2023-06-04T04:54:11;100833.25;;;25.50;46.25
34658;BME280;20865;43.312;27.152;2023-06-04T04:56:39;100830.88;;;25.51;46.46
34658;BME280;20865;43.312;27.152;2023-06-04T04:59:07;100835.33;;;25.58;45.68
34658;BME280;20865;43.312;27.152;2023-06-04T05:01:34;100839.68;;;25.60;45.23
34658;BME280;20865;43.312;27.152;2023-06-04T05:04:02;100838.92;;;25.64;46.53
34658;BME280;20865;43.312;27.152;2023-06-04T05:06:29;100838.27;;;25.66;46.53
34658;BME280;20865;43.312;27.152;2023-06-04T05:08:59;100835.16;;;25.71;46.65
34658;BME280;20865;43.312;27.152;2023-06-04T05:11:26;100838.75;;;25.77;46.91
34658;BME280;20865;43.312;27.152;2023-06-04T05:13:54;100845.34;;;25.80;44.47
34658;BME280;20865;43.312;27.152;2023-06-04T05:16:21;100839.39;;;25.80;43.90
34658;BME280;20865;43.312;27.152;2023-06-04T05:18:49;100846.33;;;25.84;44.65
34658;BME280;20865;43.312;27.152;2023-06-04T05:21:18;100850.03;;;25.89;44.65
34658;BME280;20865;43.312;27.152;2023-06-04T05:23:46;100847.80;;;25.88;43.42
34658;BME280;20865;43.312;27.152;2023-06-04T05:26:14;100853.23;;;25.94;43.55
34658;BME280;20865;43.312;27.152;2023-06-04T05:28:43;100848.50;;;25.96;43.46
34658;BME280;20865;43.312;27.152;2023-06-04T05:31:10;100854.77;;;26.08;44.67
34658;BME280;20865;43.312;27.152;2023-06-04T05:33:39;100855.38;;;26.11;44.02
34658;BME280;20865;43.312;27.152;2023-06-04T05:36:07;100849.52;;;26.16;43.75
34658;BME280;20865;43.312;27.152;2023-06-04T05:38:35;100851.75;;;26.17;43.16
34658;BME280;20865;43.312;27.152;2023-06-04T05:41:02;100859.01;;;26.33;43.49
34658;BME280;20865;43.312;27.152;2023-06-04T05:43:30;100855.70;;;26.39;42.99
34658;BME280;20865;43.312;27.152;2023-06-04T05:45:57;100858.69;;;26.47;43.30
34658;BME280;20865;43.312;27.152;2023-06-04T05:48:25;100860.64;;;26.30;42.36
34658;BME280;20865;43.312;27.152;2023-06-04T05:50:53;100870.00;;;26.43;42.08
34658;BME280;20865;43.312;27.152;2023-06-04T05:53:20;100864.05;;;26.43;43.32
34658;BME280;20865;43.312;27.152;2023-06-04T05:55:50;100868.38;;;26.25;42.92
34658;BME280;20865;43.312;27.152;2023-06-04T05:58:17;100872.29;;;26.37;42.95
34658;BME280;20865;43.312;27.152;2023-06-04T06:00:45;100878.03;;;26.34;43.07
34658;BME280;20865;43.312;27.152;2023-06-04T06:03:12;100873.08;;;26.28;42.73
34658;BME280;20865;43.312;27.152;2023-06-04T06:05:42;100881.89;;;26.58;43.72
34658;BME280;20865;43.312;27.152;2023-06-04T06:08:10;100885.41;;;26.55;43.72
34658;BME280;20865;43.312;27.152;2023-06-04T06:10:37;100878.52;;;26.60;43.33
34658;BME280;20865;43.312;27.152;2023-06-04T06:13:05;100882.22;;;26.65;43.31
34658;BME280;20865;43.312;27.152;2023-06-04T06:15:32;100886.00;;;26.58;42.24
34658;BME280;20865;43.312;27.152;2023-06-04T06:18:02;100886.15;;;26.57;43.62
34658;BME280;20865;43.312;27.152;2023-06-04T06:20:29;100889.30;;;26.68;42.92
34658;BME280;20865;43.312;27.152;2023-06-04T06:23:06;100883.41;;;26.72;42.94
34658;BME280;20865;43.312;27.152;2023-06-04T06:25:33;100894.72;;;26.73;43.31
34658;BME280;20865;43.312;27.152;2023-06-04T06:28:03;100898.08;;;26.92;42.25
34658;BME280;20865;43.312;27.152;2023-06-04T06:30:31;100897.16;;;27.13;43.68
34658;BME280;20865;43.312;27.152;2023-06-04T06:32:59;100903.19;;;27.22;42.60
34658;BME280;20865;43.312;27.152;2023-06-04T06:35:26;100897.58;;;27.48;42.77
34658;BME280;20865;43.312;27.152;2023-06-04T06:37:54;100897.80;;;27.61;42.47
34658;BME280;20865;43.312;27.152;2023-06-04T06:40:22;100888.42;;;27.63;41.86
34658;BME280;20865;43.312;27.152;2023-06-04T06:42:50;100889.56;;;27.61;40.58
34658;BME280;20865;43.312;27.152;2023-06-04T06:45:19;100892.88;;;27.45;41.03
34658;BME280;20865;43.312;27.152;2023-06-04T06:47:46;100894.77;;;27.79;41.34
34658;BME280;20865;43.312;27.152;2023-06-04T06:50:14;100896.28;;;27.72;41.12
34658;BME280;20865;43.312;27.152;2023-06-04T06:52:42;100899.38;;;27.88;41.08
34658;BME280;20865;43.312;27.152;2023-06-04T06:55:09;100884.44;;;27.87;40.59
34658;BME280;20865;43.312;27.152;2023-06-04T06:57:37;100899.55;;;27.96;40.45
34658;BME280;20865;43.312;27.152;2023-06-04T07:00:07;100896.28;;;28.45;41.53
34658;BME280;20865;43.312;27.152;2023-06-04T07:02:35;100896.28;;;28.45;41.53
34658;BME280;20865;43.312;27.152;2023-06-04T07:05:02;100907.56;;;28.66;42.34
34658;BME280;20865;43.312;27.152;2023-06-04T07:07:30;100903.63;;;28.78;40.49
34658;BME280;20865;43.312;27.152;2023-06-04T07:09:58;100907.68;;;28.84;39.18
34658;BME280;20865;43.312;27.152;2023-06-04T07:12:26;100904.36;;;28.80;38.62
34658;BME280;20865;43.312;27.152;2023-06-04T07:14:53;100907.27;;;28.92;38.89
34658;BME280;20865;43.312;27.152;2023-06-04T07:17:22;100911.39;;;29.02;39.32
34658;BME280;20865;43.312;27.152;2023-06-04T07:19:50;100915.78;;;29.09;38.39
34658;BME280;20865;43.312;27.152;2023-06-04T07:22:17;100917.48;;;29.33;39.53
34658;BME280;20865;43.312;27.152;2023-06-04T07:24:45;100916.14;;;29.37;37.83
34658;BME280;20865;43.312;27.152;2023-06-04T07:27:13;100919.41;;;29.23;37.62
34658;BME280;20865;43.312;27.152;2023-06-04T07:29:43;100922.81;;;29.49;38.61
34658;BME280;20865;43.312;27.152;2023-06-04T07:32:14;100927.80;;;29.49;38.42
34658;BME280;20865;43.312;27.152;2023-06-04T07:34:42;100916.63;;;29.60;37.38
34658;BME280;20865;43.312;27.152;2023-06-04T07:37:10;100931.17;;;29.71;36.39
34658;BME280;20865;43.312;27.152;2023-06-04T07:39:39;100924.53;;;29.77;37.02
34658;BME280;20865;43.312;27.152;2023-06-04T07:42:07;100925.84;;;29.87;36.94
34658;BME280;20865;43.312;27.152;2023-06-04T07:44:36;100927.22;;;29.87;34.83
34658;BME280;20865;43.312;27.152;2023-06-04T07:47:06;100920.92;;;29.95;36.20
34658;BME280;20865;43.312;27.152;2023-06-04T07:49:33;100924.33;;;30.06;36.31
34658;BME280;20865;43.312;27.152;2023-06-04T07:52:01;100925.48;;;30.18;36.03
34658;BME280;20865;43.312;27.152;2023-06-04T07:54:29;100917.77;;;30.21;36.28
34658;BME280;20865;43.312;27.152;2023-06-04T07:56:57;100924.13;;;30.40;36.37
34658;BME280;20865;43.312;27.152;2023-06-04T07:59:25;100931.27;;;30.28;36.34
34658;BME280;20865;43.312;27.152;2023-06-04T08:01:53;100935.94;;;30.32;36.79
34658;BME280;20865;43.312;27.152;2023-06-04T08:04:20;100933.82;;;30.26;35.95
34658;BME280;20865;43.312;27.152;2023-06-04T08:06:48;100937.92;;;30.22;36.32
34658;BME280;20865;43.312;27.152;2023-06-04T08:09:16;100936.79;;;30.14;35.22
34658;BME280;20865;43.312;27.152;2023-06-04T08:11:44;100938.96;;;30.07;35.22
34658;BME280;20865;43.312;27.152;2023-06-04T08:14:12;100931.80;;;29.96;34.85
34658;BME280;20865;43.312;27.152;2023-06-04T08:16:40;100937.27;;;29.92;35.72
34658;BME280;20865;43.312;27.152;2023-06-04T08:19:08;100937.38;;;29.86;35.77
34658;BME280;20865;43.312;27.152;2023-06-04T08:21:36;100940.41;;;29.97;35.26
34658;BME280;20865;43.312;27.152;2023-06-04T08:24:03;100931.52;;;30.03;35.05
34658;BME280;20865;43.312;27.152;2023-06-04T08:26:31;100930.56;;;30.12;35.32
34658;BME280;20865;43.312;27.152;2023-06-04T08:29:01;100929.70;;;30.12;33.69
34658;BME280;20865;43.312;27.152;2023-06-04T08:31:28;100930.00;;;30.23;34.08
34658;BME280;20865;43.312;27.152;2023-06-04T08:33:56;100932.84;;;30.31;33.89
34658;BME280;20865;43.312;27.152;2023-06-04T08:36:24;100936.15;;;30.34;34.00
34658;BME280;20865;43.312;27.152;2023-06-04T08:38:52;100938.59;;;30.37;33.19
34658;BME280;20865;43.312;27.152;2023-06-04T08:44:06;100936.12;;;30.52;32.65
34658;BME280;20865;43.312;27.152;2023-06-04T08:46:39;100935.33;;;30.64;33.08
34658;BME280;20865;43.312;27.152;2023-06-04T08:49:07;100936.73;;;30.68;34.04
34658;BME280;20865;43.312;27.152;2023-06-04T08:51:36;100934.45;;;30.81;32.64
34658;BME280;20865;43.312;27.152;2023-06-04T08:54:05;100938.69;;;30.98;33.26
34658;BME280;20865;43.312;27.152;2023-06-04T08:56:36;100937.52;;;31.00;33.00
34658;BME280;20865;43.312;27.152;2023-06-04T08:59:06;100937.84;;;30.97;31.29
34658;BME280;20865;43.312;27.152;2023-06-04T09:01:35;100940.43;;;31.03;30.94
34658;BME280;20865;43.312;27.152;2023-06-04T09:04:06;100942.83;;;30.98;30.17
34658;BME280;20865;43.312;27.152;2023-06-04T09:06:37;100948.29;;;30.46;29.78
34658;BME280;20865;43.312;27.152;2023-06-04T09:09:06;100939.66;;;30.89;31.26
34658;BME280;20865;43.312;27.152;2023-06-04T09:11:41;100945.64;;;31.10;31.98
34658;BME280;20865;43.312;27.152;2023-06-04T09:14:10;100949.65;;;31.16;29.21
34658;BME280;20865;43.312;27.152;2023-06-04T09:16:50;100948.82;;;31.23;30.74
34658;BME280;20865;43.312;27.152;2023-06-04T09:19:18;100954.20;;;31.29;31.08
34658;BME280;20865;43.312;27.152;2023-06-04T09:21:51;100949.98;;;31.43;30.74
34658;BME280;20865;43.312;27.152;2023-06-04T09:24:21;100948.48;;;31.52;30.17
34658;BME280;20865;43.312;27.152;2023-06-04T09:26:49;100949.55;;;31.64;30.22
34658;BME280;20865;43.312;27.152;2023-06-04T09:29:18;100949.22;;;31.67;31.14
34658;BME280;20865;43.312;27.152;2023-06-04T09:31:56;100954.94;;;31.77;31.09
34658;BME280;20865;43.312;27.152;2023-06-04T09:34:16;100949.42;;;31.86;28.98
34658;BME280;20865;43.312;27.152;2023-06-04T09:36:45;100952.19;;;31.86;30.43
34658;BME280;20865;43.312;27.152;2023-06-04T09:39:16;100955.55;;;32.10;30.56
34658;BME280;20865;43.312;27.152;2023-06-04T09:41:44;100959.17;;;32.14;29.60
34658;BME280;20865;43.312;27.152;2023-06-04T09:44:13;100943.38;;;31.82;28.37
34658;BME280;20865;43.312;27.152;2023-06-04T09:46:41;100952.60;;;32.03;30.31
34658;BME280;20865;43.312;27.152;2023-06-04T09:49:09;100947.78;;;32.13;28.82
34658;BME280;20865;43.312;27.152;2023-06-04T09:51:46;100948.83;;;32.08;27.68
34658;BME280;20865;43.312;27.152;2023-06-04T09:54:07;100949.50;;;32.14;28.30
34658;BME280;20865;43.312;27.152;2023-06-04T09:56:41;100946.73;;;32.10;28.81
34658;BME280;20865;43.312;27.152;2023-06-04T09:59:09;100938.81;;;32.19;29.71
34658;BME280;20865;43.312;27.152;2023-06-04T10:01:41;100944.67;;;32.24;29.75
34658;BME280;20865;43.312;27.152;2023-06-04T10:04:09;100949.34;;;32.12;29.80
34658;BME280;20865;43.312;27.152;2023-06-04T10:06:39;100939.67;;;32.16;29.24
34658;BME280;20865;43.312;27.152;2023-06-04T10:09:08;100944.34;;;32.19;29.07
34658;BME280;20865;43.312;27.152;2023-06-04T10:11:40;100940.01;;;32.25;29.48
34658;BME280;20865;43.312;27.152;2023-06-04T10:14:21;100936.56;;;32.27;28.85
34658;BME280;20865;43.312;27.152;2023-06-04T10:16:51;100933.62;;;32.16;28.93
34658;BME280;20865;43.312;27.152;2023-06-04T10:19:19;100929.13;;;32.28;28.71
34658;BME280;20865;43.312;27.152;2023-06-04T10:21:48;100933.47;;;32.26;29.98
34658;BME280;20865;43.312;27.152;2023-06-04T10:24:16;100934.65;;;32.36;29.85
34658;BME280;20865;43.312;27.152;2023-06-04T10:26:44;100935.53;;;32.40;29.12
34658;BME280;20865;43.312;27.152;2023-06-04T10:29:13;100938.65;;;32.33;28.01
34658;BME280;20865;43.312;27.152;2023-06-04T10:31:41;100936.03;;;32.36;28.88
34658;BME280;20865;43.312;27.152;2023-06-04T10:34:11;100940.05;;;32.45;28.69
34658;BME280;20865;43.312;27.152;2023-06-04T10:36:46;100941.95;;;32.45;28.96
34658;BME280;20865;43.312;27.152;2023-06-04T10:39:14;100931.94;;;32.44;27.76
34658;BME280;20865;43.312;27.152;2023-06-04T10:41:43;100936.60;;;32.47;29.41
34658;BME280;20865;43.312;27.152;2023-06-04T10:44:11;100942.81;;;32.41;29.90
34658;BME280;20865;43.312;27.152;2023-06-04T10:46:40;100932.27;;;32.45;29.84
34658;BME280;20865;43.312;27.152;2023-06-04T10:49:10;100931.21;;;32.38;29.42
34658;BME280;20865;43.312;27.152;2023-06-04T10:51:39;100934.51;;;32.29;28.40
34658;BME280;20865;43.312;27.152;2023-06-04T10:54:07;100930.36;;;32.29;29.71
34658;BME280;20865;43.312;27.152;2023-06-04T10:56:35;100937.27;;;32.33;29.72
34658;BME280;20865;43.312;27.152;2023-06-04T10:59:17;100936.56;;;32.31;29.88
34658;BME280;20865;43.312;27.152;2023-06-04T11:01:45;100931.56;;;32.26;28.75
34658;BME280;20865;43.312;27.152;2023-06-04T11:04:23;100937.77;;;32.29;29.35
34658;BME280;20865;43.312;27.152;2023-06-04T11:07:01;100936.91;;;32.12;29.10
34658;BME280;20865;43.312;27.152;2023-06-04T11:09:31;100934.64;;;32.03;29.09
34658;BME280;20865;43.312;27.152;2023-06-04T11:12:00;100937.74;;;31.92;29.09
34658;BME280;20865;43.312;27.152;2023-06-04T11:14:28;100934.05;;;31.83;29.51
34658;BME280;20865;43.312;27.152;2023-06-04T11:16:56;100927.28;;;31.69;30.48
34658;BME280;20865;43.312;27.152;2023-06-04T11:19:23;100932.98;;;31.68;30.01
34658;BME280;20865;43.312;27.152;2023-06-04T11:21:51;100943.16;;;31.59;29.03
34658;BME280;20865;43.312;27.152;2023-06-04T11:24:19;100943.09;;;31.47;29.33
34658;BME280;20865;43.312;27.152;2023-06-04T11:26:46;100937.92;;;31.52;29.51
34658;BME280;20865;43.312;27.152;2023-06-04T11:29:14;100935.88;;;31.54;29.85
34658;BME280;20865;43.312;27.152;2023-06-04T11:31:44;100941.22;;;31.55;30.21
34658;BME280;20865;43.312;27.152;2023-06-04T11:34:23;100937.05;;;31.43;29.80
34658;BME280;20865;43.312;27.152;2023-06-04T11:36:51;100935.53;;;31.49;30.14
34658;BME280;20865;43.312;27.152;2023-06-04T11:39:20;100938.25;;;31.45;29.95
34658;BME280;20865;43.312;27.152;2023-06-04T11:41:50;100934.31;;;31.55;30.05
34658;BME280;20865;43.312;27.152;2023-06-04T11:44:19;100937.27;;;31.62;29.84
34658;BME280;20865;43.312;27.152;2023-06-04T11:46:48;100936.94;;;31.61;28.91
34658;BME280;20865;43.312;27.152;2023-06-04T11:49:19;100935.23;;;31.68;28.95
34658;BME280;20865;43.312;27.152;2023-06-04T11:51:48;100936.95;;;31.69;28.40
34658;BME280;20865;43.312;27.152;2023-06-04T11:54:20;100935.61;;;31.73;28.82
34658;BME280;20865;43.312;27.152;2023-06-04T11:56:51;100935.41;;;31.71;28.80
34658;BME280;20865;43.312;27.152;2023-06-04T11:59:19;100931.09;;;31.72;28.43
34658;BME280;20865;43.312;27.152;2023-06-04T12:01:48;100936.61;;;31.72;29.13
34658;BME280;20865;43.312;27.152;2023-06-04T12:04:18;100928.18;;;31.74;29.04
34658;BME280;20865;43.312;27.152;2023-06-04T12:06:55;100931.09;;;31.72;28.62
34658;BME280;20865;43.312;27.152;2023-06-04T12:09:29;100924.38;;;31.75;28.00
34658;BME280;20865;43.312;27.152;2023-06-04T12:12:08;100927.47;;;31.72;28.64
34658;BME280;20865;43.312;27.152;2023-06-04T12:14:36;100926.23;;;31.62;29.85
34658;BME280;20865;43.312;27.152;2023-06-04T12:17:08;100927.98;;;31.63;29.15
34658;BME280;20865;43.312;27.152;2023-06-04T12:19:47;100923.31;;;31.64;29.30
34658;BME280;20865;43.312;27.152;2023-06-04T12:22:15;100916.75;;;31.61;28.57
34658;BME280;20865;43.312;27.152;2023-06-04T12:24:57;100918.84;;;31.63;27.79
34658;BME280;20865;43.312;27.152;2023-06-04T12:27:26;100928.18;;;31.74;28.62
34658;BME280;20865;43.312;27.152;2023-06-04T12:29:59;100928.00;;;31.75;28.89
34658;BME280;20865;43.312;27.152;2023-06-04T12:32:28;100922.81;;;31.76;28.62
34658;BME280;20865;43.312;27.152;2023-06-04T12:34:55;100915.05;;;31.76;28.69
34658;BME280;20865;43.312;27.152;2023-06-04T12:37:24;100916.95;;;31.75;28.42
34658;BME280;20865;43.312;27.152;2023-06-04T12:39:55;100924.38;;;31.83;28.27
34658;BME280;20865;43.312;27.152;2023-06-04T12:42:22;100924.75;;;31.84;28.33
34658;BME280;20865;43.312;27.152;2023-06-04T12:44:50;100916.95;;;31.75;28.33
34658;BME280;20865;43.312;27.152;2023-06-04T12:47:18;100920.75;;;31.74;27.78
34658;BME280;20865;43.312;27.152;2023-06-04T12:49:47;100915.05;;;31.72;28.59
34658;BME280;20865;43.312;27.152;2023-06-04T12:52:16;100922.81;;;31.76;27.76